WETTER
   Tageswerte       Wochenwerte       Monatswerte       Jahresübersicht   
 
 
Tageswerte: Tabelle (min / Mittelwert / max)
 
Datum Temperatur
in °C
Luftdruck
in hPa
Luftfeuchte
in % (rel.)
Brunnen-
wasser-
stand in m
Niederschlag
in l/m²
(Summe)
Beleuchtungs-
stärke (max)
in lux
2021-08-02 03:00 – 04:00 0.0 13.4 0.0 0 0 0 0 85 0 0.0 3.6 0.0 0 0
2021-08-02 02:00 – 03:00 0.0 14.1 0.0 0 0 0 0 80 0 0.0 13.3 0.0 0 0
2021-08-02 01:00 – 02:00 0.0 13.7 0.0 0 0 0 0 83 0 0.0 14.5 0.0 0 0
2021-08-02 00:00 – 01:00 0.0 13.4 0.0 0 0 0 0 87 0 0.0 4.2 0.0 0 0
2021-08-01 23:00 – 24:00 0.0 12.9 0.0 0 0 0 0 90 0 0.0 3.0 0.0 0 0
2021-08-01 22:00 – 23:00 0.0 12.9 0.0 0 0 0 0 90 0 0.0 0.0 0.0 0 0
2021-08-01 21:00 – 22:00 0.0 13.2 0.0 0 0 0 0 90 0 0.0 0.0 0.0 0 0
2021-08-01 20:00 – 21:00 0.0 13.7 0.0 0 0 0 0 90 0 0.0 0.0 0.0 0 2
2021-08-01 19:00 – 20:00 0.0 14.4 0.0 0 0 0 0 89 0 0.0 0.0 0.0 0 360
2021-08-01 18:00 – 19:00 0.0 14.3 0.0 0 0 0 0 89 0 0.0 2.4 0.0 1 22
2021-08-01 17:00 – 18:00 0.0 15.4 0.0 0 0 0 0 89 0 0.0 6.7 0.0 1 300
2021-08-01 16:00 – 17:00 0.0 15.9 0.0 0 0 0 0 88 0 0.0 0.0 0.0 3 400
2021-08-01 15:00 – 16:00 0.0 16.3 0.0 0 0 0 0 88 0 0.0 1.2 0.0 7 6
2021-08-01 14:00 – 15:00 0.0 19.1 0.0 0 0 0 0 85 0 0.0 0.0 0.0 0 45
2021-08-01 13:00 – 14:00 0.0 21.7 0.0 0 0 0 0 82 0 0.0 0.0 0.0 0 4100
2021-08-01 12:00 – 13:00 0.0 23.4 0.0 0 0 0 0 84 0 0.0 1.8 0.0 0 11000
2021-08-01 11:00 – 12:00 0.0 18.7 0.0 0 0 0 0 90 0 0.0 0.0 0.0 0 8000
2021-08-01 10:00 – 11:00 0.0 15.8 0.0 0 0 0 0 91 0 0.0 3.6 0.0 2 250
2021-08-01 09:00 – 10:00 0.0 16.0 0.0 0 0 0 0 91 0 0.0 0.0 0.0 0 10
2021-08-01 08:00 – 09:00 0.0 15.6 0.0 0 0 0 0 91 0 0.0 0.0 0.0 0 64
2021-08-01 07:00 – 08:00 0.0 15.2 0.0 0 0 0 0 91 0 0.0 0.0 0.0 0 50
2021-08-01 06:00 – 07:00 0.0 14.6 0.0 0 0 0 0 91 0 0.0 0.0 0.0 0 0
2021-08-01 05:00 – 06:00 0.0 14.8 0.0 0 0 0 0 91 0 0.0 0.0 0.0 6 0
2021-08-01 04:00 – 05:00 0.0 15.0 0.0 0 0 0 0 90 0 0.0 0.0 0.0 0 0
 
   Tabelle       Temperatur       Luftdruck       Luftfeuchte       Brunnenwasserstand       Niederschlag       Lichstärke